Latest Coastal Weather Observations for Low Head

IDT60701

Issued at 8:32 am EST Wednesday 3 June 2020 (issued every 10 minutes, with the page automatically refreshed every 10 minutes)

About coastal observations | Map of coastal stations | Coastal observations for TAS | Marine services | Other Formats
Station Details ID: 091293 Name: LOW HEAD Lat: -41.05 Lon: 146.79 Height: 3.0 m
Data from the previous 72 hours. | See also: Recent months at Low Head
Date/Time
EST
Wind Sea
Height
m
Swell Vis
km
Cloud Weather Temp
°C
Press
hPa
Rain since
9am
mm
Dir  Spd
kts
Gust
kts
Height
m
Period
s
Dir
03/08:30am SW 7 8 - - - - - - - 10.0 1024.1 0.0
03/08:00am SW 6 8 - - - - - - - 9.5 1023.2 0.0
03/07:30am SE 4 6 - - - - - - - 8.9 1022.6 0.0
03/07:00am SSW 6 9 - - - - - - - 9.5 1021.9 0.0
03/06:30am SE 3 6 - - - - - - - 8.4 1021.3 0.0
03/06:00am SSW 11 13 - - - - - - - 9.5 1020.3 0.0
03/05:30am SSE 7 11 - - - - - - - 9.1 1019.6 0.0
03/05:00am SSE 9 17 - - - - - - - 9.1 1018.4 0.0
03/04:30am WSW 17 19 - - - - - - - 10.9 1017.5 0.0
03/04:00am WSW 13 15 - - - - - - - 10.6 1017.0 0.0
03/03:30am SW 10 14 - - - - - - - 10.2 1016.4 0.0
03/03:00am SSW 11 18 - - - - - - - 9.7 1016.0 0.0
03/02:30am WSW 14 17 - - - - - - - 11.4 1015.4 0.0
03/02:00am WSW 16 19 - - - - - - - 11.5 1014.6 0.0
03/01:30am WSW 18 23 - - - - - - - 11.5 1014.0 0.0
03/01:00am WSW 18 26 - - - - - - - 11.7 1013.6 0.0
03/12:30am WSW 18 21 - - - - - - - 11.6 1013.0 0.0
03/12:00am WSW 19 23 - - - - - - - 11.8 1012.5 0.0
 
Date/Time
EST
Wind Sea
Height
m
Swell Vis
km
Cloud Weather Temp
°C
Press
hPa
Rain since
9am
mm
Dir  Spd
kts
Gust
kts
Height
m
Period
s
Dir
02/11:30pm WSW 18 23 - - - - - - - 11.7 1012.2 0.0
02/11:00pm WSW 21 25 - - - - - - - 11.8 1011.3 0.0
02/10:30pm WSW 11 18 - - - - - - - 11.8 1011.3 0.0
02/10:00pm WSW 16 19 - - - - - - - 12.2 1011.0 0.0
02/09:30pm WSW 15 23 - - - - - - - 12.1 1010.5 0.0
02/09:00pm WSW 26 30 - - - - - - - 12.4 1009.8 0.0
02/08:30pm W 29 35 - - - - - - - 12.8 1008.8 0.0
02/08:00pm W 27 31 - - - - - - - 12.9 1009.0 0.0
02/07:30pm W 27 32 - - - - - - - 13.0 1009.2 0.0
02/07:00pm WNW 27 32 - - - - - - - 12.9 1008.8 0.0
02/06:30pm WNW 27 34 - - - - - - - 13.0 1008.7 0.0
02/06:00pm WNW 27 32 - - - - - - - 13.1 1008.7 0.0
02/05:30pm WNW 27 33 - - - - - - - 13.0 1008.6 0.0
02/05:00pm WNW 28 34 - - - - - - - 12.9 1008.6 0.0
02/04:30pm WNW 28 33 - - - - - - - 13.1 1008.7 0.0
02/04:00pm WNW 28 33 - - - - - - - 13.2 1009.4 0.0
02/03:30pm WNW 27 34 - - - - - - - 13.4 1009.4 0.0
02/03:00pm WNW 25 29 - - - - - - - 13.4 1009.6 0.0
02/02:30pm WNW 25 30 - - - - - - - 13.9 1009.2 0.0
02/02:00pm WNW 21 25 - - - - - - - 13.7 1009.9 0.0
02/01:30pm WNW 23 27 - - - - - - - 13.5 1010.4 0.0
02/01:00pm WNW 25 30 - - - - - - - 13.6 1010.4 0.0
02/12:30pm WNW 23 28 - - - - - - - 13.2 1010.8 0.0
02/12:00pm WNW 24 29 - - - - - - - 13.5 1011.3 0.0
02/11:30am WNW 20 24 - - - - - - - 13.6 1011.4 0.0
02/11:00am WNW 19 22 - - - - - - - 13.3 1011.8 0.0
02/10:30am WNW 20 24 - - - - - - - 13.5 1011.8 0.0
02/10:00am WNW 20 25 - - - - - - - 13.1 1011.5 0.0
02/09:30am W 20 23 - - - - - - - 13.3 1011.6 0.0
02/09:00am W 20 24 - - - - - - - 13.0 1011.5 0.2
02/08:30am W 21 25 - - - - - - - 12.6 1011.3 0.2
02/08:00am W 22 25 - - - - - - - 12.4 1011.2 0.2
02/07:30am W 21 24 - - - - - - - 12.2 1010.9 0.2
02/07:00am W 19 21 - - - - - - - 11.9 1010.8 0.2
02/06:30am W 18 21 - - - - - - - 11.8 1010.6 0.2
02/06:00am WNW 17 20 - - - - - - - 11.8 1010.6 0.2
02/05:30am W 19 24 - - - - - - - 11.5 1010.6 0.2
02/05:11am WSW 14 23 - - - - - - - 11.4 1010.4 0.2
02/05:00am WSW 10 13 - - - - - - - 10.1 1010.5 0.2
02/04:30am WSW 10 12 - - - - - - - 10.1 1010.7 0.2
02/04:00am WSW 13 15 - - - - - - - 10.3 1010.5 0.2
02/03:30am W 10 15 - - - - - - - 10.4 1010.5 0.2
02/03:00am W 9 11 - - - - - - - 10.0 1010.8 0.2
02/02:30am WSW 20 24 - - - - - - - 10.0 1010.5 0.2
02/02:27am WSW 20 24 - - - - - - - 10.1 1010.4 0.2
02/02:00am SSW 8 16 - - - - - - - 9.1 1010.4 0.2
02/01:30am WSW 14 17 - - - - - - - 9.4 1010.1 0.2
02/01:00am W 17 19 - - - - - - - 10.1 1009.8 0.0
02/12:30am WSW 14 16 - - - - - - - 9.9 1009.8 0.0
02/12:00am W 15 17 - - - - - - - 10.5 1009.6 0.0
 
Date/Time
EST
Wind Sea
Height
m
Swell Vis
km
Cloud Weather Temp
°C
Press
hPa
Rain since
9am
mm
Dir  Spd
kts
Gust
kts
Height
m
Period
s
Dir
01/11:30pm WSW 13 14 - - - - - - - 10.6 1009.3 0.0
01/11:00pm W 16 19 - - - - - - - 10.6 1009.1 0.0
01/10:55pm WSW 12 18 - - - - - - - 10.4 1009.2 0.0
01/10:30pm SSW 2 5 - - - - - - - 10.1 1009.0 0.0
01/10:00pm SSE 4 6 - - - - - - - 9.9 1008.5 0.0
01/09:30pm SSE 7 8 - - - - - - - 9.6 1008.5 0.0
01/09:00pm S 6 7 - - - - - - - 10.8 1008.1 0.0
01/08:30pm SSW 2 4 - - - - - - - 11.9 1007.7 0.0
01/08:00pm WNW 7 9 - - - - - - - 12.6 1007.4 0.0
01/07:30pm W 7 8 - - - - - - - 12.7 1007.2 0.0
01/07:00pm WNW 6 7 - - - - - - - 12.5 1006.8 0.0
01/06:30pm SW 4 6 - - - - - - - 12.2 1006.2 0.0
01/06:00pm W 4 5 - - - - - - - 12.2 1006.0 0.0
01/05:30pm W 7 9 - - - - - - - 12.5 1005.6 0.0
01/05:00pm WNW 7 8 - - - - - - - 12.5 1005.0 0.0
01/04:30pm NW 12 15 - - - - - - - 12.4 1004.7 0.0
01/04:00pm NW 9 11 - - - - - - - 12.6 1004.6 0.0
01/03:30pm WNW 13 16 - - - - - - - 12.9 1004.5 0.0
01/03:00pm WNW 15 17 - - - - - - - 13.6 1004.2 0.0
01/02:30pm NW 13 16 - - - - - - - 13.6 1003.7 0.0
01/02:00pm N 15 17 - - - - - - - 13.1 1003.5 0.0
01/01:30pm N 15 18 - - - - - - - 12.8 1003.2 0.0
01/01:00pm N 18 21 - - - - - - - 13.0 1003.0 0.0
01/12:30pm N 15 17 - - - - - - - 13.5 1002.9 0.0
01/12:00pm N 17 19 - - - - - - - 13.1 1002.9 0.0
01/11:30am N 9 12 - - - - - - - 13.2 1003.2 0.0
01/11:00am NNW 8 10 - - - - - - - 12.2 1003.3 0.0
01/10:30am N 17 22 - - - - - - - 12.5 1003.0 0.0
01/10:00am N 15 17 - - - - - - - 13.5 1002.8 0.0
01/09:30am N 14 17 - - - - - - - 13.3 1002.7 0.0
01/09:00am N 14 16 - - - - - - - 13.0 1002.5 2.2
01/08:30am N 18 22 - - - - - - - 12.7 1002.4 2.2
01/08:00am N 18 21 - - - - - - - 12.9 1002.1 2.2
01/07:30am N 16 19 - - - - - - - 13.1 1001.9 2.2
01/07:00am N 17 20 - - - - - - - 13.3 1001.8 2.2
01/06:30am N 19 23 - - - - - - - 13.0 1001.6 2.2
01/06:00am N 17 20 - - - - - - Recent precip. 13.2 1001.6 2.0
01/05:30am NNW 15 18 - - - - - - - 13.2 1001.6 1.6
01/05:00am NNW 19 22 - - - - - - - 13.2 1001.6 1.6
01/04:30am NNW 17 19 - - - - - - - 13.0 1001.7 1.6
01/04:00am NNW 18 22 - - - - - - - 12.9 1001.8 1.6
01/03:30am NNW 19 23 - - - - - - - 12.8 1002.1 1.6
01/03:00am NNW 16 22 - - - - - - Recent precip. 12.3 1002.3 1.4
01/02:49am NNW 14 27 - - - - - - - 11.7 1002.7 1.4
01/02:30am NNW 10 14 - - - - - - - 11.4 1002.9 1.2
01/02:09am NNW 17 27 - - - - - - - 13.4 1003.0 0.2
01/02:00am NNW 17 20 - - - - - - - 13.2 1003.0 0.2
01/01:30am NNW 16 21 - - - - - - - 13.2 1003.2 0.2
01/01:00am NNW 17 21 - - - - - - - 13.2 1003.4 0.2
01/12:30am N 15 18 - - - - - - - 12.8 1003.8 0.2
01/12:00am NNW 12 14 - - - - - - - 13.0 1004.3 0.2
 
Date/Time
EST
Wind Sea
Height
m
Swell Vis
km
Cloud Weather Temp
°C
Press
hPa
Rain since
9am
mm
Dir  Spd
kts
Gust
kts
Height
m
Period
s
Dir
31/11:30pm NNW 14 16 - - - - - - - 12.9 1004.8 0.2
31/11:00pm NW 15 17 - - - - - - - 12.9 1005.2 0.2
31/10:30pm NW 15 18 - - - - - - - 13.0 1005.6 0.2
31/10:00pm NW 17 20 - - - - - - - 12.9 1005.8 0.2
31/09:30pm NW 17 20 - - - - - - - 12.8 1006.3 0.2
31/09:00pm WNW 10 13 - - - - - - - 12.2 1006.6 0.2
31/08:30pm W 12 14 - - - - - - - 12.4 1006.8 0.2
31/08:00pm NW 16 19 - - - - - - - 12.9 1006.8 0.2
31/07:30pm NW 14 17 - - - - - - - 12.6 1006.9 0.2
31/07:00pm NNW 17 20 - - - - - - - 12.5 1007.2 0.2
31/06:30pm NW 17 20 - - - - - - - 12.6 1007.3 0.2
31/06:00pm NW 19 21 - - - - - - - 12.4 1007.2 0.2
31/05:30pm NW 21 26 - - - - - - - 12.4 1007.2 0.2
31/05:00pm NW 19 22 - - - - - - - 12.8 1007.0 0.2
31/04:30pm NW 19 22 - - - - - - - 12.9 1007.1 0.2
31/04:00pm NW 17 20 - - - - - - - 12.9 1007.1 0.2
31/03:30pm NW 15 17 - - - - - - - 12.8 1007.2 0.2
31/03:00pm NW 14 18 - - - - - - Recent precip. 12.5 1007.2 0.2
31/02:30pm WNW 17 20 - - - - - - - 12.6 1007.3 0.2
31/02:17pm NW 17 24 - - - - - - - 12.9 1007.3 0.0
31/02:00pm NW 13 15 - - - - - - - 14.2 1007.1 0.0
31/01:30pm NNW 16 18 - - - - - - - 13.3 1007.5 0.0
31/01:00pm NNW 17 18 - - - - - - - 12.8 1007.6 0.0
31/12:30pm NW 15 17 - - - - - - - 13.7 1008.1 0.0
31/12:00pm NNW 17 19 - - - - - - - 13.0 1008.5 0.0
31/11:30am NW 15 17 - - - - - - - 14.0 1008.8 0.0
31/11:00am NW 16 19 - - - - - - - 14.0 1009.2 0.0
31/10:30am NW 14 16 - - - - - - - 13.9 1009.4 0.0
31/10:00am NW 15 18 - - - - - - - 14.1 1009.5 0.0
31/09:30am WNW 15 19 - - - - - - - 13.8 1009.4 0.0
31/09:00am WNW 17 20 - - - - - - - 13.1 1009.2 1.0

Other formats

Comma delimited format used in spreadsheet applications
http://www.bom.gov.au/fwo/IDT60701/IDT60701.95964.axf

JavaScript Object Notation format (JSON) in row-major order
http://www.bom.gov.au/fwo/IDT60701/IDT60701.95964.json

Data quality

Most of these data are generated automatically and are frequently updated. Quality checks on data are not normally performed. It is possible for incorrect values to appear. Refer to information at About Latest Weather Observations and please check the disclaimer before using these data.